sensor_id;sensor_type;location;lat;lon;timestamp;temperature;humidity
33994;DHT22;20673;48.980;8.138;2023-08-06T00:00:29;15.90;99.90
33994;DHT22;20673;48.980;8.138;2023-08-06T00:02:55;15.80;99.90
33994;DHT22;20673;48.980;8.138;2023-08-06T00:05:21;15.80;99.90
33994;DHT22;20673;48.980;8.138;2023-08-06T00:07:47;15.80;99.90
33994;DHT22;20673;48.980;8.138;2023-08-06T00:10:14;15.60;99.90
33994;DHT22;20673;48.980;8.138;2023-08-06T00:12:41;15.60;99.90
33994;DHT22;20673;48.980;8.138;2023-08-06T00:15:08;15.50;99.90
33994;DHT22;20673;48.980;8.138;2023-08-06T00:17:35;15.50;99.90
33994;DHT22;20673;48.980;8.138;2023-08-06T00:20:02;15.50;99.90
33994;DHT22;20673;48.980;8.138;2023-08-06T00:22:36;15.50;99.90
33994;DHT22;20673;48.980;8.138;2023-08-06T00:25:04;15.50;99.90
33994;DHT22;20673;48.980;8.138;2023-08-06T00:27:31;15.50;99.90
33994;DHT22;20673;48.980;8.138;2023-08-06T00:29:58;15.50;99.90
33994;DHT22;20673;48.980;8.138;2023-08-06T00:32:24;15.50;99.90
33994;DHT22;20673;48.980;8.138;2023-08-06T00:34:50;15.50;99.90
33994;DHT22;20673;48.980;8.138;2023-08-06T00:37:17;15.60;99.90
33994;DHT22;20673;48.980;8.138;2023-08-06T00:39:44;15.60;99.90
33994;DHT22;20673;48.980;8.138;2023-08-06T00:42:12;15.70;99.90
33994;DHT22;20673;48.980;8.138;2023-08-06T00:44:39;15.80;99.90
33994;DHT22;20673;48.980;8.138;2023-08-06T00:47:07;16.00;99.90
33994;DHT22;20673;48.980;8.138;2023-08-06T00:49:35;16.20;99.90
33994;DHT22;20673;48.980;8.138;2023-08-06T00:52:04;16.20;99.90
33994;DHT22;20673;48.980;8.138;2023-08-06T00:54:34;16.30;99.90
33994;DHT22;20673;48.980;8.138;2023-08-06T00:57:01;16.30;99.90
33994;DHT22;20673;48.980;8.138;2023-08-06T00:59:28;16.40;99.90
33994;DHT22;20673;48.980;8.138;2023-08-06T01:01:56;16.50;99.90
33994;DHT22;20673;48.980;8.138;2023-08-06T01:04:23;16.50;99.90
33994;DHT22;20673;48.980;8.138;2023-08-06T01:09:35;16.50;99.90
33994;DHT22;20673;48.980;8.138;2023-08-06T01:14:46;16.60;99.90
33994;DHT22;20673;48.980;8.138;2023-08-06T01:17:14;16.60;99.90
33994;DHT22;20673;48.980;8.138;2023-08-06T01:19:40;16.60;99.90
33994;DHT22;20673;48.980;8.138;2023-08-06T01:22:06;16.70;99.90
33994;DHT22;20673;48.980;8.138;2023-08-06T01:24:33;16.70;99.90
33994;DHT22;20673;48.980;8.138;2023-08-06T01:30:20;16.70;99.90
33994;DHT22;20673;48.980;8.138;2023-08-06T01:32:58;16.60;99.90
33994;DHT22;20673;48.980;8.138;2023-08-06T01:35:27;16.60;99.90
33994;DHT22;20673;48.980;8.138;2023-08-06T01:37:55;16.50;99.90
33994;DHT22;20673;48.980;8.138;2023-08-06T01:40:22;16.40;99.90
33994;DHT22;20673;48.980;8.138;2023-08-06T01:42:48;16.40;99.90
33994;DHT22;20673;48.980;8.138;2023-08-06T01:45:14;16.30;99.90
33994;DHT22;20673;48.980;8.138;2023-08-06T01:47:40;16.20;99.90
33994;DHT22;20673;48.980;8.138;2023-08-06T01:50:06;16.20;99.90
33994;DHT22;20673;48.980;8.138;2023-08-06T01:52:33;16.10;99.90
33994;DHT22;20673;48.980;8.138;2023-08-06T01:54:59;16.10;99.90
33994;DHT22;20673;48.980;8.138;2023-08-06T01:57:25;16.00;99.90
33994;DHT22;20673;48.980;8.138;2023-08-06T01:59:51;15.90;99.90
33994;DHT22;20673;48.980;8.138;2023-08-06T02:02:17;15.90;99.90
33994;DHT22;20673;48.980;8.138;2023-08-06T02:04:43;15.80;99.90
33994;DHT22;20673;48.980;8.138;2023-08-06T02:07:09;15.70;99.90
33994;DHT22;20673;48.980;8.138;2023-08-06T02:09:35;15.70;99.90
33994;DHT22;20673;48.980;8.138;2023-08-06T02:12:02;15.70;99.90
33994;DHT22;20673;48.980;8.138;2023-08-06T02:14:28;15.60;99.90
33994;DHT22;20673;48.980;8.138;2023-08-06T02:16:54;15.50;99.90
33994;DHT22;20673;48.980;8.138;2023-08-06T02:19:21;15.50;99.90
33994;DHT22;20673;48.980;8.138;2023-08-06T02:21:47;15.50;99.90
33994;DHT22;20673;48.980;8.138;2023-08-06T02:24:13;15.50;99.90
33994;DHT22;20673;48.980;8.138;2023-08-06T02:26:39;15.50;99.90
33994;DHT22;20673;48.980;8.138;2023-08-06T02:29:05;15.50;99.90
33994;DHT22;20673;48.980;8.138;2023-08-06T02:31:31;15.50;99.90
33994;DHT22;20673;48.980;8.138;2023-08-06T02:33:57;15.50;99.90
33994;DHT22;20673;48.980;8.138;2023-08-06T02:36:24;15.40;99.90
33994;DHT22;20673;48.980;8.138;2023-08-06T02:38:50;15.40;99.90
33994;DHT22;20673;48.980;8.138;2023-08-06T02:41:16;15.40;99.90
33994;DHT22;20673;48.980;8.138;2023-08-06T02:43:42;15.40;99.90
33994;DHT22;20673;48.980;8.138;2023-08-06T02:46:08;15.30;99.90
33994;DHT22;20673;48.980;8.138;2023-08-06T02:48:34;15.20;99.90
33994;DHT22;20673;48.980;8.138;2023-08-06T02:51:00;15.20;99.90
33994;DHT22;20673;48.980;8.138;2023-08-06T02:53:27;15.10;99.90
33994;DHT22;20673;48.980;8.138;2023-08-06T02:55:53;15.00;99.90
33994;DHT22;20673;48.980;8.138;2023-08-06T02:58:19;15.00;99.90
33994;DHT22;20673;48.980;8.138;2023-08-06T03:01:04;15.00;99.90
33994;DHT22;20673;48.980;8.138;2023-08-06T03:03:31;14.90;99.90
33994;DHT22;20673;48.980;8.138;2023-08-06T03:05:58;14.90;99.90
33994;DHT22;20673;48.980;8.138;2023-08-06T03:08:24;14.80;99.90
33994;DHT22;20673;48.980;8.138;2023-08-06T03:10:51;14.80;99.90
33994;DHT22;20673;48.980;8.138;2023-08-06T03:13:19;14.80;99.90
33994;DHT22;20673;48.980;8.138;2023-08-06T03:15:55;14.80;99.90
33994;DHT22;20673;48.980;8.138;2023-08-06T03:18:24;14.80;99.90
33994;DHT22;20673;48.980;8.138;2023-08-06T03:20:51;14.80;99.90
33994;DHT22;20673;48.980;8.138;2023-08-06T03:23:18;14.80;99.90
33994;DHT22;20673;48.980;8.138;2023-08-06T03:25:44;14.80;99.90
33994;DHT22;20673;48.980;8.138;2023-08-06T03:28:11;14.80;99.90
33994;DHT22;20673;48.980;8.138;2023-08-06T03:30:37;14.80;99.90
33994;DHT22;20673;48.980;8.138;2023-08-06T03:33:03;14.80;99.90
33994;DHT22;20673;48.980;8.138;2023-08-06T03:35:29;14.80;99.90
33994;DHT22;20673;48.980;8.138;2023-08-06T03:37:56;14.80;99.90
33994;DHT22;20673;48.980;8.138;2023-08-06T03:40:22;14.80;99.90
33994;DHT22;20673;48.980;8.138;2023-08-06T03:42:48;14.80;99.90
33994;DHT22;20673;48.980;8.138;2023-08-06T03:45:14;14.90;99.90
33994;DHT22;20673;48.980;8.138;2023-08-06T03:47:40;14.90;99.90
33994;DHT22;20673;48.980;8.138;2023-08-06T03:50:07;14.90;99.90
33994;DHT22;20673;48.980;8.138;2023-08-06T03:52:33;14.90;99.90
33994;DHT22;20673;48.980;8.138;2023-08-06T03:55:00;14.90;99.90
33994;DHT22;20673;48.980;8.138;2023-08-06T03:57:26;14.90;99.90
33994;DHT22;20673;48.980;8.138;2023-08-06T03:59:52;14.80;99.90
33994;DHT22;20673;48.980;8.138;2023-08-06T04:02:18;14.90;99.90
33994;DHT22;20673;48.980;8.138;2023-08-06T04:04:44;14.80;99.90
33994;DHT22;20673;48.980;8.138;2023-08-06T04:07:10;14.80;99.90
33994;DHT22;20673;48.980;8.138;2023-08-06T04:12:26;14.90;99.90
33994;DHT22;20673;48.980;8.138;2023-08-06T04:14:53;14.90;99.90
33994;DHT22;20673;48.980;8.138;2023-08-06T04:17:20;14.90;99.90
33994;DHT22;20673;48.980;8.138;2023-08-06T04:19:52;14.90;99.90
33994;DHT22;20673;48.980;8.138;2023-08-06T04:22:21;14.90;99.90
33994;DHT22;20673;48.980;8.138;2023-08-06T04:24:47;14.90;99.90
33994;DHT22;20673;48.980;8.138;2023-08-06T04:27:14;14.90;99.90
33994;DHT22;20673;48.980;8.138;2023-08-06T04:29:41;14.90;99.90
33994;DHT22;20673;48.980;8.138;2023-08-06T04:32:09;14.90;99.90
33994;DHT22;20673;48.980;8.138;2023-08-06T04:34:36;14.90;99.90
33994;DHT22;20673;48.980;8.138;2023-08-06T04:37:03;15.00;99.90
33994;DHT22;20673;48.980;8.138;2023-08-06T04:39:30;15.00;99.90
33994;DHT22;20673;48.980;8.138;2023-08-06T04:41:56;15.00;99.90
33994;DHT22;20673;48.980;8.138;2023-08-06T04:44:25;15.10;99.90
33994;DHT22;20673;48.980;8.138;2023-08-06T04:46:51;15.10;99.90
33994;DHT22;20673;48.980;8.138;2023-08-06T04:49:20;15.00;99.90
33994;DHT22;20673;48.980;8.138;2023-08-06T04:51:46;15.10;99.90
33994;DHT22;20673;48.980;8.138;2023-08-06T04:54:12;15.10;99.90
33994;DHT22;20673;48.980;8.138;2023-08-06T04:56:38;15.10;99.90
33994;DHT22;20673;48.980;8.138;2023-08-06T04:59:04;15.10;99.90
33994;DHT22;20673;48.980;8.138;2023-08-06T05:01:31;15.10;99.90
33994;DHT22;20673;48.980;8.138;2023-08-06T05:03:57;15.00;99.90
33994;DHT22;20673;48.980;8.138;2023-08-06T05:06:23;15.00;99.90
33994;DHT22;20673;48.980;8.138;2023-08-06T05:08:49;15.00;99.90
33994;DHT22;20673;48.980;8.138;2023-08-06T05:11:15;15.00;99.90
33994;DHT22;20673;48.980;8.138;2023-08-06T05:13:42;14.90;99.90
33994;DHT22;20673;48.980;8.138;2023-08-06T05:16:08;14.90;99.90
33994;DHT22;20673;48.980;8.138;2023-08-06T05:18:34;14.90;99.90
33994;DHT22;20673;48.980;8.138;2023-08-06T05:21:00;14.80;99.90
33994;DHT22;20673;48.980;8.138;2023-08-06T05:23:26;14.80;99.90
33994;DHT22;20673;48.980;8.138;2023-08-06T05:25:52;14.80;99.90
33994;DHT22;20673;48.980;8.138;2023-08-06T05:28:18;14.80;99.90
33994;DHT22;20673;48.980;8.138;2023-08-06T05:30:44;14.80;99.90
33994;DHT22;20673;48.980;8.138;2023-08-06T05:33:10;14.80;99.90
33994;DHT22;20673;48.980;8.138;2023-08-06T05:35:36;14.80;99.90
33994;DHT22;20673;48.980;8.138;2023-08-06T05:38:02;14.80;99.90
33994;DHT22;20673;48.980;8.138;2023-08-06T05:40:28;14.90;99.90
33994;DHT22;20673;48.980;8.138;2023-08-06T05:42:54;14.90;99.90
33994;DHT22;20673;48.980;8.138;2023-08-06T05:45:21;14.90;99.90
33994;DHT22;20673;48.980;8.138;2023-08-06T05:47:50;15.00;99.90
33994;DHT22;20673;48.980;8.138;2023-08-06T05:50:16;15.10;99.90
33994;DHT22;20673;48.980;8.138;2023-08-06T05:52:42;15.20;99.90
33994;DHT22;20673;48.980;8.138;2023-08-06T05:55:08;15.20;99.90
33994;DHT22;20673;48.980;8.138;2023-08-06T05:57:34;15.20;99.90
33994;DHT22;20673;48.980;8.138;2023-08-06T06:00:01;15.10;99.90
33994;DHT22;20673;48.980;8.138;2023-08-06T06:02:28;15.00;99.90
33994;DHT22;20673;48.980;8.138;2023-08-06T06:04:54;15.10;99.90
33994;DHT22;20673;48.980;8.138;2023-08-06T06:07:20;15.10;99.90
33994;DHT22;20673;48.980;8.138;2023-08-06T06:09:46;15.20;99.90
33994;DHT22;20673;48.980;8.138;2023-08-06T06:12:12;15.30;99.90
33994;DHT22;20673;48.980;8.138;2023-08-06T06:14:38;15.40;99.90
33994;DHT22;20673;48.980;8.138;2023-08-06T06:17:05;15.40;99.90
33994;DHT22;20673;48.980;8.138;2023-08-06T06:19:31;15.30;99.90
33994;DHT22;20673;48.980;8.138;2023-08-06T06:21:57;15.20;99.90
33994;DHT22;20673;48.980;8.138;2023-08-06T06:24:23;15.20;99.90
33994;DHT22;20673;48.980;8.138;2023-08-06T06:26:49;15.20;99.90
33994;DHT22;20673;48.980;8.138;2023-08-06T06:29:15;15.20;99.90
33994;DHT22;20673;48.980;8.138;2023-08-06T06:31:41;15.30;99.90
33994;DHT22;20673;48.980;8.138;2023-08-06T06:34:07;15.20;99.90
33994;DHT22;20673;48.980;8.138;2023-08-06T06:36:33;15.20;99.90
33994;DHT22;20673;48.980;8.138;2023-08-06T06:38:59;15.20;99.90
33994;DHT22;20673;48.980;8.138;2023-08-06T06:41:25;15.30;99.90
33994;DHT22;20673;48.980;8.138;2023-08-06T06:43:52;15.20;99.90
33994;DHT22;20673;48.980;8.138;2023-08-06T06:46:18;15.20;99.90
33994;DHT22;20673;48.980;8.138;2023-08-06T06:48:44;15.20;99.90
33994;DHT22;20673;48.980;8.138;2023-08-06T06:51:10;15.20;99.90
33994;DHT22;20673;48.980;8.138;2023-08-06T06:53:36;15.20;99.90
33994;DHT22;20673;48.980;8.138;2023-08-06T06:56:04;15.10;99.90
33994;DHT22;20673;48.980;8.138;2023-08-06T06:58:31;15.10;99.90
33994;DHT22;20673;48.980;8.138;2023-08-06T07:00:58;15.20;99.90
33994;DHT22;20673;48.980;8.138;2023-08-06T07:03:24;15.20;99.90
33994;DHT22;20673;48.980;8.138;2023-08-06T07:05:50;15.30;99.90
33994;DHT22;20673;48.980;8.138;2023-08-06T07:08:17;15.40;99.90
33994;DHT22;20673;48.980;8.138;2023-08-06T07:10:43;15.40;99.90
33994;DHT22;20673;48.980;8.138;2023-08-06T07:13:09;15.50;99.90
33994;DHT22;20673;48.980;8.138;2023-08-06T07:15:36;15.50;99.90
33994;DHT22;20673;48.980;8.138;2023-08-06T07:18:02;15.40;99.90
33994;DHT22;20673;48.980;8.138;2023-08-06T07:20:28;15.40;99.90
33994;DHT22;20673;48.980;8.138;2023-08-06T07:22:56;15.30;99.90
33994;DHT22;20673;48.980;8.138;2023-08-06T07:25:22;15.30;99.90
33994;DHT22;20673;48.980;8.138;2023-08-06T07:27:48;15.30;99.90
33994;DHT22;20673;48.980;8.138;2023-08-06T07:30:14;15.40;99.90
33994;DHT22;20673;48.980;8.138;2023-08-06T07:32:40;15.30;99.90
33994;DHT22;20673;48.980;8.138;2023-08-06T07:35:07;15.30;99.90
33994;DHT22;20673;48.980;8.138;2023-08-06T07:37:35;15.20;99.90
33994;DHT22;20673;48.980;8.138;2023-08-06T07:40:01;15.30;99.90
33994;DHT22;20673;48.980;8.138;2023-08-06T07:42:28;15.40;99.90
33994;DHT22;20673;48.980;8.138;2023-08-06T07:44:55;15.50;99.90
33994;DHT22;20673;48.980;8.138;2023-08-06T07:47:22;15.50;99.90
33994;DHT22;20673;48.980;8.138;2023-08-06T07:49:48;15.40;99.90
33994;DHT22;20673;48.980;8.138;2023-08-06T07:52:14;15.40;99.90
33994;DHT22;20673;48.980;8.138;2023-08-06T07:54:40;15.40;99.90
33994;DHT22;20673;48.980;8.138;2023-08-06T07:57:07;15.40;99.90
33994;DHT22;20673;48.980;8.138;2023-08-06T07:59:33;15.40;99.90
33994;DHT22;20673;48.980;8.138;2023-08-06T08:02:00;15.40;99.90
33994;DHT22;20673;48.980;8.138;2023-08-06T08:04:26;15.40;99.90
33994;DHT22;20673;48.980;8.138;2023-08-06T08:06:52;15.40;99.90
33994;DHT22;20673;48.980;8.138;2023-08-06T08:09:19;15.40;99.90
33994;DHT22;20673;48.980;8.138;2023-08-06T08:11:46;15.50;99.90
33994;DHT22;20673;48.980;8.138;2023-08-06T08:14:12;15.50;99.90
33994;DHT22;20673;48.980;8.138;2023-08-06T08:16:38;15.50;99.90
33994;DHT22;20673;48.980;8.138;2023-08-06T08:19:04;15.40;99.90
33994;DHT22;20673;48.980;8.138;2023-08-06T08:21:31;15.40;99.90
33994;DHT22;20673;48.980;8.138;2023-08-06T08:23:59;15.50;99.90
33994;DHT22;20673;48.980;8.138;2023-08-06T08:26:26;15.70;99.90
33994;DHT22;20673;48.980;8.138;2023-08-06T08:28:56;15.80;99.90
33994;DHT22;20673;48.980;8.138;2023-08-06T08:31:22;15.90;99.90
33994;DHT22;20673;48.980;8.138;2023-08-06T08:33:48;16.00;99.90
33994;DHT22;20673;48.980;8.138;2023-08-06T08:36:14;15.90;99.90
33994;DHT22;20673;48.980;8.138;2023-08-06T08:38:41;15.80;99.90
33994;DHT22;20673;48.980;8.138;2023-08-06T08:41:09;15.80;99.90
33994;DHT22;20673;48.980;8.138;2023-08-06T08:43:36;15.80;99.90
33994;DHT22;20673;48.980;8.138;2023-08-06T08:46:04;15.80;99.90
33994;DHT22;20673;48.980;8.138;2023-08-06T08:48:32;15.70;99.90
33994;DHT22;20673;48.980;8.138;2023-08-06T08:50:58;15.60;99.90
33994;DHT22;20673;48.980;8.138;2023-08-06T08:53:26;15.60;99.90
33994;DHT22;20673;48.980;8.138;2023-08-06T08:55:54;15.60;99.90
33994;DHT22;20673;48.980;8.138;2023-08-06T08:58:21;15.70;99.90
33994;DHT22;20673;48.980;8.138;2023-08-06T09:00:47;15.70;99.90
33994;DHT22;20673;48.980;8.138;2023-08-06T09:03:14;15.80;99.90
33994;DHT22;20673;48.980;8.138;2023-08-06T09:05:48;15.70;99.90
33994;DHT22;20673;48.980;8.138;2023-08-06T09:08:18;15.60;99.90
33994;DHT22;20673;48.980;8.138;2023-08-06T09:10:48;15.50;99.90
33994;DHT22;20673;48.980;8.138;2023-08-06T09:13:16;15.40;99.90
33994;DHT22;20673;48.980;8.138;2023-08-06T09:15:42;15.40;99.90
33994;DHT22;20673;48.980;8.138;2023-08-06T09:18:10;15.50;99.90
33994;DHT22;20673;48.980;8.138;2023-08-06T09:20:38;15.60;99.90
33994;DHT22;20673;48.980;8.138;2023-08-06T09:23:09;15.70;99.90
33994;DHT22;20673;48.980;8.138;2023-08-06T09:25:38;15.80;99.90
33994;DHT22;20673;48.980;8.138;2023-08-06T09:28:07;15.80;99.90
33994;DHT22;20673;48.980;8.138;2023-08-06T09:30:35;15.90;99.90
33994;DHT22;20673;48.980;8.138;2023-08-06T09:33:03;16.00;99.90
33994;DHT22;20673;48.980;8.138;2023-08-06T09:35:31;16.00;99.90
33994;DHT22;20673;48.980;8.138;2023-08-06T09:38:09;16.00;99.90
33994;DHT22;20673;48.980;8.138;2023-08-06T09:40:36;16.00;99.90
33994;DHT22;20673;48.980;8.138;2023-08-06T09:43:03;16.10;99.90
33994;DHT22;20673;48.980;8.138;2023-08-06T09:45:32;16.10;99.90
33994;DHT22;20673;48.980;8.138;2023-08-06T09:48:05;16.10;99.90
33994;DHT22;20673;48.980;8.138;2023-08-06T09:50:32;16.10;99.90
33994;DHT22;20673;48.980;8.138;2023-08-06T09:53:03;16.00;99.90
33994;DHT22;20673;48.980;8.138;2023-08-06T09:55:32;15.90;99.90
33994;DHT22;20673;48.980;8.138;2023-08-06T09:57:59;15.80;99.90
33994;DHT22;20673;48.980;8.138;2023-08-06T10:00:26;15.60;99.90
33994;DHT22;20673;48.980;8.138;2023-08-06T10:02:54;15.60;99.90
33994;DHT22;20673;48.980;8.138;2023-08-06T10:05:25;15.60;99.90
33994;DHT22;20673;48.980;8.138;2023-08-06T10:07:53;15.60;99.90
33994;DHT22;20673;48.980;8.138;2023-08-06T10:10:22;15.60;99.90
33994;DHT22;20673;48.980;8.138;2023-08-06T10:12:52;15.60;99.90
33994;DHT22;20673;48.980;8.138;2023-08-06T10:15:27;15.70;99.90
33994;DHT22;20673;48.980;8.138;2023-08-06T10:17:57;15.70;99.90
33994;DHT22;20673;48.980;8.138;2023-08-06T10:20:26;15.70;99.90
33994;DHT22;20673;48.980;8.138;2023-08-06T10:23:05;15.70;99.90
33994;DHT22;20673;48.980;8.138;2023-08-06T10:25:35;15.70;99.90
33994;DHT22;20673;48.980;8.138;2023-08-06T10:28:08;15.70;99.90
33994;DHT22;20673;48.980;8.138;2023-08-06T10:30:44;15.70;99.90
33994;DHT22;20673;48.980;8.138;2023-08-06T10:33:12;15.70;99.90
33994;DHT22;20673;48.980;8.138;2023-08-06T10:35:44;15.70;99.90
33994;DHT22;20673;48.980;8.138;2023-08-06T10:38:16;15.80;99.90
33994;DHT22;20673;48.980;8.138;2023-08-06T10:43:34;15.70;99.90
33994;DHT22;20673;48.980;8.138;2023-08-06T10:46:08;15.60;99.90
33994;DHT22;20673;48.980;8.138;2023-08-06T10:48:39;15.50;99.90
33994;DHT22;20673;48.980;8.138;2023-08-06T10:51:09;15.50;99.90
33994;DHT22;20673;48.980;8.138;2023-08-06T10:53:37;15.50;99.90
33994;DHT22;20673;48.980;8.138;2023-08-06T10:56:13;15.40;99.90
33994;DHT22;20673;48.980;8.138;2023-08-06T10:58:40;15.50;99.90
33994;DHT22;20673;48.980;8.138;2023-08-06T11:01:07;15.50;99.90
33994;DHT22;20673;48.980;8.138;2023-08-06T11:03:34;15.50;99.90
33994;DHT22;20673;48.980;8.138;2023-08-06T11:06:01;15.50;99.90
33994;DHT22;20673;48.980;8.138;2023-08-06T11:08:33;15.60;99.90
33994;DHT22;20673;48.980;8.138;2023-08-06T11:11:13;15.80;99.90
33994;DHT22;20673;48.980;8.138;2023-08-06T11:13:44;15.80;99.90
33994;DHT22;20673;48.980;8.138;2023-08-06T11:16:19;15.90;99.90
33994;DHT22;20673;48.980;8.138;2023-08-06T11:18:48;16.00;99.90
33994;DHT22;20673;48.980;8.138;2023-08-06T11:21:20;16.00;99.90
33994;DHT22;20673;48.980;8.138;2023-08-06T11:23:49;15.90;99.90
33994;DHT22;20673;48.980;8.138;2023-08-06T11:26:20;15.90;99.90
33994;DHT22;20673;48.980;8.138;2023-08-06T11:28:48;15.90;99.90
33994;DHT22;20673;48.980;8.138;2023-08-06T11:31:23;16.10;99.90
33994;DHT22;20673;48.980;8.138;2023-08-06T11:33:53;16.30;99.90
33994;DHT22;20673;48.980;8.138;2023-08-06T11:36:30;16.30;99.90
33994;DHT22;20673;48.980;8.138;2023-08-06T11:39:00;16.20;99.90
33994;DHT22;20673;48.980;8.138;2023-08-06T11:41:30;16.10;99.90
33994;DHT22;20673;48.980;8.138;2023-08-06T11:44:00;16.00;99.90
33994;DHT22;20673;48.980;8.138;2023-08-06T11:46:27;16.10;99.90
33994;DHT22;20673;48.980;8.138;2023-08-06T11:48:54;16.20;99.90
33994;DHT22;20673;48.980;8.138;2023-08-06T11:51:25;16.40;99.90
33994;DHT22;20673;48.980;8.138;2023-08-06T11:53:59;16.40;99.90
33994;DHT22;20673;48.980;8.138;2023-08-06T11:56:25;16.50;99.90
33994;DHT22;20673;48.980;8.138;2023-08-06T11:58:52;16.60;99.90
33994;DHT22;20673;48.980;8.138;2023-08-06T12:01:22;16.60;99.90
33994;DHT22;20673;48.980;8.138;2023-08-06T12:03:48;16.50;99.90
33994;DHT22;20673;48.980;8.138;2023-08-06T12:06:15;16.50;99.90
33994;DHT22;20673;48.980;8.138;2023-08-06T12:08:41;16.60;99.90
33994;DHT22;20673;48.980;8.138;2023-08-06T12:11:08;16.60;99.90
33994;DHT22;20673;48.980;8.138;2023-08-06T12:13:34;16.70;99.90
33994;DHT22;20673;48.980;8.138;2023-08-06T12:16:00;16.90;99.90
33994;DHT22;20673;48.980;8.138;2023-08-06T12:18:26;17.00;99.90
33994;DHT22;20673;48.980;8.138;2023-08-06T12:20:52;17.20;99.90
33994;DHT22;20673;48.980;8.138;2023-08-06T12:23:18;17.20;99.90
33994;DHT22;20673;48.980;8.138;2023-08-06T12:25:44;17.20;99.90
33994;DHT22;20673;48.980;8.138;2023-08-06T12:28:11;17.20;99.90
33994;DHT22;20673;48.980;8.138;2023-08-06T12:30:39;17.20;99.90
33994;DHT22;20673;48.980;8.138;2023-08-06T12:33:07;17.10;99.90
33994;DHT22;20673;48.980;8.138;2023-08-06T12:35:33;16.90;99.90
33994;DHT22;20673;48.980;8.138;2023-08-06T12:37:59;16.80;99.90
33994;DHT22;20673;48.980;8.138;2023-08-06T12:40:26;16.80;99.90
33994;DHT22;20673;48.980;8.138;2023-08-06T12:42:53;16.90;99.90
33994;DHT22;20673;48.980;8.138;2023-08-06T12:45:21;17.10;99.90
33994;DHT22;20673;48.980;8.138;2023-08-06T12:47:47;17.20;99.90
33994;DHT22;20673;48.980;8.138;2023-08-06T12:50:15;17.30;99.90
33994;DHT22;20673;48.980;8.138;2023-08-06T12:52:41;17.20;99.90
33994;DHT22;20673;48.980;8.138;2023-08-06T12:55:07;17.20;99.90
33994;DHT22;20673;48.980;8.138;2023-08-06T12:57:33;17.00;99.90
33994;DHT22;20673;48.980;8.138;2023-08-06T13:00:00;17.10;99.90
33994;DHT22;20673;48.980;8.138;2023-08-06T13:02:27;17.30;99.90
33994;DHT22;20673;48.980;8.138;2023-08-06T13:04:55;17.70;99.90
33994;DHT22;20673;48.980;8.138;2023-08-06T13:07:21;17.70;99.90
33994;DHT22;20673;48.980;8.138;2023-08-06T13:09:47;17.80;99.90
33994;DHT22;20673;48.980;8.138;2023-08-06T13:12:13;18.10;99.90
33994;DHT22;20673;48.980;8.138;2023-08-06T13:14:39;18.50;99.90
33994;DHT22;20673;48.980;8.138;2023-08-06T13:17:05;18.70;99.90
33994;DHT22;20673;48.980;8.138;2023-08-06T13:19:33;18.80;99.90
33994;DHT22;20673;48.980;8.138;2023-08-06T13:22:02;18.90;99.90
33994;DHT22;20673;48.980;8.138;2023-08-06T13:24:31;19.10;99.90
33994;DHT22;20673;48.980;8.138;2023-08-06T13:26:57;19.00;99.90
33994;DHT22;20673;48.980;8.138;2023-08-06T13:29:25;19.10;99.90
33994;DHT22;20673;48.980;8.138;2023-08-06T13:31:54;18.90;99.90
33994;DHT22;20673;48.980;8.138;2023-08-06T13:34:21;18.60;99.90
33994;DHT22;20673;48.980;8.138;2023-08-06T13:36:47;18.50;99.90
33994;DHT22;20673;48.980;8.138;2023-08-06T13:39:14;18.60;99.90
33994;DHT22;20673;48.980;8.138;2023-08-06T13:41:42;18.70;99.90
33994;DHT22;20673;48.980;8.138;2023-08-06T13:44:08;18.80;99.90
33994;DHT22;20673;48.980;8.138;2023-08-06T13:46:36;18.90;99.90
33994;DHT22;20673;48.980;8.138;2023-08-06T13:49:02;18.90;99.90
33994;DHT22;20673;48.980;8.138;2023-08-06T13:51:28;19.30;99.90
33994;DHT22;20673;48.980;8.138;2023-08-06T13:53:54;19.80;99.90
33994;DHT22;20673;48.980;8.138;2023-08-06T13:56:22;20.20;99.90
33994;DHT22;20673;48.980;8.138;2023-08-06T13:58:49;20.30;99.90
33994;DHT22;20673;48.980;8.138;2023-08-06T14:01:17;20.40;99.90
33994;DHT22;20673;48.980;8.138;2023-08-06T14:03:45;20.80;99.90
33994;DHT22;20673;48.980;8.138;2023-08-06T14:06:12;20.60;99.90
33994;DHT22;20673;48.980;8.138;2023-08-06T14:08:38;20.40;99.90
33994;DHT22;20673;48.980;8.138;2023-08-06T14:11:05;20.30;99.90
33994;DHT22;20673;48.980;8.138;2023-08-06T14:13:32;20.30;99.90
33994;DHT22;20673;48.980;8.138;2023-08-06T14:15:58;20.30;99.90
33994;DHT22;20673;48.980;8.138;2023-08-06T14:18:24;20.20;99.90
33994;DHT22;20673;48.980;8.138;2023-08-06T14:20:51;20.40;99.90
33994;DHT22;20673;48.980;8.138;2023-08-06T14:23:18;20.10;99.90
33994;DHT22;20673;48.980;8.138;2023-08-06T14:25:45;19.90;99.90
33994;DHT22;20673;48.980;8.138;2023-08-06T14:28:11;19.50;99.90
33994;DHT22;20673;48.980;8.138;2023-08-06T14:30:37;19.30;99.90
33994;DHT22;20673;48.980;8.138;2023-08-06T14:33:03;19.10;99.90
33994;DHT22;20673;48.980;8.138;2023-08-06T14:35:30;18.80;99.90
33994;DHT22;20673;48.980;8.138;2023-08-06T14:37:56;18.70;99.90
33994;DHT22;20673;48.980;8.138;2023-08-06T14:40:22;18.70;99.90
33994;DHT22;20673;48.980;8.138;2023-08-06T14:42:48;18.70;99.90
33994;DHT22;20673;48.980;8.138;2023-08-06T14:45:14;18.70;99.90
33994;DHT22;20673;48.980;8.138;2023-08-06T14:47:40;18.80;99.90
33994;DHT22;20673;48.980;8.138;2023-08-06T14:50:07;19.00;99.90
33994;DHT22;20673;48.980;8.138;2023-08-06T14:52:33;19.40;99.90
33994;DHT22;20673;48.980;8.138;2023-08-06T14:55:00;19.20;99.90
33994;DHT22;20673;48.980;8.138;2023-08-06T14:57:27;18.90;99.90
33994;DHT22;20673;48.980;8.138;2023-08-06T14:59:54;18.60;99.90
33994;DHT22;20673;48.980;8.138;2023-08-06T15:02:20;18.70;99.90
33994;DHT22;20673;48.980;8.138;2023-08-06T15:04:48;19.00;99.90
33994;DHT22;20673;48.980;8.138;2023-08-06T15:07:15;19.50;99.90
33994;DHT22;20673;48.980;8.138;2023-08-06T15:09:41;19.60;99.90
33994;DHT22;20673;48.980;8.138;2023-08-06T15:12:08;19.30;99.90
33994;DHT22;20673;48.980;8.138;2023-08-06T15:14:34;19.30;99.90
33994;DHT22;20673;48.980;8.138;2023-08-06T15:17:00;19.00;99.90
33994;DHT22;20673;48.980;8.138;2023-08-06T15:19:26;18.80;99.90
33994;DHT22;20673;48.980;8.138;2023-08-06T15:21:52;18.80;99.90
33994;DHT22;20673;48.980;8.138;2023-08-06T15:24:18;18.60;99.90
33994;DHT22;20673;48.980;8.138;2023-08-06T15:26:44;18.30;99.90
33994;DHT22;20673;48.980;8.138;2023-08-06T15:29:10;18.20;99.90
33994;DHT22;20673;48.980;8.138;2023-08-06T15:31:37;18.00;99.90
33994;DHT22;20673;48.980;8.138;2023-08-06T15:34:06;18.00;99.90
33994;DHT22;20673;48.980;8.138;2023-08-06T15:36:36;17.90;99.90
33994;DHT22;20673;48.980;8.138;2023-08-06T15:39:02;17.80;99.90
33994;DHT22;20673;48.980;8.138;2023-08-06T15:41:30;17.70;99.90
33994;DHT22;20673;48.980;8.138;2023-08-06T15:43:56;17.60;99.90